sensor_id;sensor_type;location;lat;lon;timestamp;temperature;humidity
11925;DHT22;6022;48.768;18.608;2022-12-29T00:01:00;0.40;99.90
11925;DHT22;6022;48.768;18.608;2022-12-29T00:03:28;0.20;99.90
11925;DHT22;6022;48.768;18.608;2022-12-29T00:05:56;0.30;99.90
11925;DHT22;6022;48.768;18.608;2022-12-29T00:08:25;0.20;99.90
11925;DHT22;6022;48.768;18.608;2022-12-29T00:11:20;0.40;99.90
11925;DHT22;6022;48.768;18.608;2022-12-29T00:13:50;0.60;99.90
11925;DHT22;6022;48.768;18.608;2022-12-29T00:16:37;0.60;99.90
11925;DHT22;6022;48.768;18.608;2022-12-29T00:19:05;0.40;99.90
11925;DHT22;6022;48.768;18.608;2022-12-29T00:21:32;0.30;99.90
11925;DHT22;6022;48.768;18.608;2022-12-29T00:24:20;0.40;99.90
11925;DHT22;6022;48.768;18.608;2022-12-29T00:27:11;0.30;99.90
11925;DHT22;6022;48.768;18.608;2022-12-29T00:29:59;0.30;99.90
11925;DHT22;6022;48.768;18.608;2022-12-29T00:32:44;0.60;99.90
11925;DHT22;6022;48.768;18.608;2022-12-29T00:35:33;0.60;99.90
11925;DHT22;6022;48.768;18.608;2022-12-29T00:38:07;0.20;99.90
11925;DHT22;6022;48.768;18.608;2022-12-29T00:40:54;0.40;99.90
11925;DHT22;6022;48.768;18.608;2022-12-29T00:43:40;0.20;99.90
11925;DHT22;6022;48.768;18.608;2022-12-29T00:46:27;0.20;99.90
11925;DHT22;6022;48.768;18.608;2022-12-29T00:48:54;0.60;99.90
11925;DHT22;6022;48.768;18.608;2022-12-29T00:51:42;0.30;99.90
11925;DHT22;6022;48.768;18.608;2022-12-29T00:54:09;0.30;99.90
11925;DHT22;6022;48.768;18.608;2022-12-29T00:56:37;0.30;99.90
11925;DHT22;6022;48.768;18.608;2022-12-29T00:59:09;0.30;99.90
11925;DHT22;6022;48.768;18.608;2022-12-29T01:01:37;0.30;99.90
11925;DHT22;6022;48.768;18.608;2022-12-29T01:04:05;0.50;99.90
11925;DHT22;6022;48.768;18.608;2022-12-29T01:06:35;0.20;99.90
11925;DHT22;6022;48.768;18.608;2022-12-29T01:09:06;0.50;99.90
11925;DHT22;6022;48.768;18.608;2022-12-29T01:11:52;0.40;99.90
11925;DHT22;6022;48.768;18.608;2022-12-29T01:14:20;0.20;99.90
11925;DHT22;6022;48.768;18.608;2022-12-29T01:16:48;0.40;99.90
11925;DHT22;6022;48.768;18.608;2022-12-29T01:19:16;0.50;99.90
11925;DHT22;6022;48.768;18.608;2022-12-29T01:21:45;0.10;99.90
11925;DHT22;6022;48.768;18.608;2022-12-29T01:24:14;0.60;99.90
11925;DHT22;6022;48.768;18.608;2022-12-29T01:26:42;0.30;99.90
11925;DHT22;6022;48.768;18.608;2022-12-29T01:29:10;0.30;99.90
11925;DHT22;6022;48.768;18.608;2022-12-29T01:31:37;0.70;99.90
11925;DHT22;6022;48.768;18.608;2022-12-29T01:34:05;0.50;99.90
11925;DHT22;6022;48.768;18.608;2022-12-29T01:36:33;0.10;99.90
11925;DHT22;6022;48.768;18.608;2022-12-29T01:39:00;0.40;99.90
11925;DHT22;6022;48.768;18.608;2022-12-29T01:41:28;0.40;99.90
11925;DHT22;6022;48.768;18.608;2022-12-29T01:43:59;0.60;99.90
11925;DHT22;6022;48.768;18.608;2022-12-29T01:46:38;0.40;99.90
11925;DHT22;6022;48.768;18.608;2022-12-29T01:51:41;0.20;99.90
11925;DHT22;6022;48.768;18.608;2022-12-29T01:56:52;0.40;99.90
11925;DHT22;6022;48.768;18.608;2022-12-29T01:59:25;0.20;99.90
11925;DHT22;6022;48.768;18.608;2022-12-29T02:01:56;0.10;99.90
11925;DHT22;6022;48.768;18.608;2022-12-29T02:04:25;0.00;99.90
11925;DHT22;6022;48.768;18.608;2022-12-29T02:06:57;0.40;99.90
11925;DHT22;6022;48.768;18.608;2022-12-29T02:09:28;0.30;99.90
11925;DHT22;6022;48.768;18.608;2022-12-29T02:11:56;0.40;99.90
11925;DHT22;6022;48.768;18.608;2022-12-29T02:14:25;0.20;99.90
11925;DHT22;6022;48.768;18.608;2022-12-29T02:25:35;0.60;99.90
11925;DHT22;6022;48.768;18.608;2022-12-29T02:32:03;0.70;99.90
11925;DHT22;6022;48.768;18.608;2022-12-29T02:40:43;0.30;99.90
11925;DHT22;6022;48.768;18.608;2022-12-29T02:51:39;0.30;99.90
11925;DHT22;6022;48.768;18.608;2022-12-29T02:54:28;0.30;99.90
11925;DHT22;6022;48.768;18.608;2022-12-29T02:57:27;0.40;99.90
11925;DHT22;6022;48.768;18.608;2022-12-29T03:00:13;0.20;99.90
11925;DHT22;6022;48.768;18.608;2022-12-29T03:08:55;0.20;99.90
11925;DHT22;6022;48.768;18.608;2022-12-29T03:11:38;0.30;99.90
11925;DHT22;6022;48.768;18.608;2022-12-29T03:14:44;0.10;99.90
11925;DHT22;6022;48.768;18.608;2022-12-29T03:18:08;0.00;99.90
11925;DHT22;6022;48.768;18.608;2022-12-29T03:20:54;-0.10;99.90
11925;DHT22;6022;48.768;18.608;2022-12-29T03:23:27;-0.30;99.90
11925;DHT22;6022;48.768;18.608;2022-12-29T03:25:59;0.30;99.90
11925;DHT22;6022;48.768;18.608;2022-12-29T03:28:37;0.10;99.90
11925;DHT22;6022;48.768;18.608;2022-12-29T03:31:09;-0.10;99.90
11925;DHT22;6022;48.768;18.608;2022-12-29T03:33:38;0.20;99.90
11925;DHT22;6022;48.768;18.608;2022-12-29T03:36:11;0.30;99.90
11925;DHT22;6022;48.768;18.608;2022-12-29T03:38:57;0.10;99.90
11925;DHT22;6022;48.768;18.608;2022-12-29T03:41:30;0.30;99.90
11925;DHT22;6022;48.768;18.608;2022-12-29T03:44:00;0.30;99.90
11925;DHT22;6022;48.768;18.608;2022-12-29T03:46:27;0.40;99.90
11925;DHT22;6022;48.768;18.608;2022-12-29T03:48:54;0.30;99.90
11925;DHT22;6022;48.768;18.608;2022-12-29T03:51:21;-0.10;99.90
11925;DHT22;6022;48.768;18.608;2022-12-29T03:53:48;-0.10;99.90
11925;DHT22;6022;48.768;18.608;2022-12-29T03:56:15;0.10;99.90
11925;DHT22;6022;48.768;18.608;2022-12-29T03:58:43;0.30;99.90
11925;DHT22;6022;48.768;18.608;2022-12-29T04:01:11;0.00;99.90
11925;DHT22;6022;48.768;18.608;2022-12-29T04:03:38;0.30;99.90
11925;DHT22;6022;48.768;18.608;2022-12-29T04:06:06;0.30;99.90
11925;DHT22;6022;48.768;18.608;2022-12-29T04:08:34;0.20;99.90
11925;DHT22;6022;48.768;18.608;2022-12-29T04:11:01;0.40;99.90
11925;DHT22;6022;48.768;18.608;2022-12-29T04:13:28;0.30;99.90
11925;DHT22;6022;48.768;18.608;2022-12-29T04:15:56;0.10;99.90
11925;DHT22;6022;48.768;18.608;2022-12-29T04:18:23;0.20;99.90
11925;DHT22;6022;48.768;18.608;2022-12-29T04:20:50;0.20;99.90
11925;DHT22;6022;48.768;18.608;2022-12-29T04:23:37;0.30;99.90
11925;DHT22;6022;48.768;18.608;2022-12-29T04:26:05;0.30;99.90
11925;DHT22;6022;48.768;18.608;2022-12-29T04:28:36;0.30;99.90
11925;DHT22;6022;48.768;18.608;2022-12-29T04:31:04;0.30;99.90
11925;DHT22;6022;48.768;18.608;2022-12-29T04:33:31;0.40;99.90
11925;DHT22;6022;48.768;18.608;2022-12-29T04:35:59;0.40;99.90
11925;DHT22;6022;48.768;18.608;2022-12-29T04:38:26;0.60;99.90
11925;DHT22;6022;48.768;18.608;2022-12-29T04:40:54;0.70;99.90
11925;DHT22;6022;48.768;18.608;2022-12-29T04:43:22;0.80;99.90
11925;DHT22;6022;48.768;18.608;2022-12-29T04:45:49;0.30;99.90
11925;DHT22;6022;48.768;18.608;2022-12-29T04:48:16;0.80;99.90
11925;DHT22;6022;48.768;18.608;2022-12-29T04:50:46;0.40;99.90
11925;DHT22;6022;48.768;18.608;2022-12-29T04:53:16;0.60;99.90
11925;DHT22;6022;48.768;18.608;2022-12-29T04:55:47;0.40;99.90
11925;DHT22;6022;48.768;18.608;2022-12-29T04:58:16;0.70;99.90
11925;DHT22;6022;48.768;18.608;2022-12-29T05:00:49;0.30;99.90
11925;DHT22;6022;48.768;18.608;2022-12-29T05:03:17;0.60;99.90
11925;DHT22;6022;48.768;18.608;2022-12-29T05:05:45;0.40;99.90
11925;DHT22;6022;48.768;18.608;2022-12-29T05:08:12;0.30;99.90
11925;DHT22;6022;48.768;18.608;2022-12-29T05:10:39;0.40;99.90
11925;DHT22;6022;48.768;18.608;2022-12-29T05:13:07;0.40;99.90
11925;DHT22;6022;48.768;18.608;2022-12-29T05:15:34;0.40;99.90
11925;DHT22;6022;48.768;18.608;2022-12-29T05:18:01;0.30;99.90
11925;DHT22;6022;48.768;18.608;2022-12-29T05:20:28;0.30;99.90
11925;DHT22;6022;48.768;18.608;2022-12-29T05:22:58;0.60;99.90
11925;DHT22;6022;48.768;18.608;2022-12-29T05:25:29;0.40;99.90
11925;DHT22;6022;48.768;18.608;2022-12-29T05:28:05;0.50;99.90
11925;DHT22;6022;48.768;18.608;2022-12-29T05:30:33;0.40;99.90
11925;DHT22;6022;48.768;18.608;2022-12-29T05:33:00;0.40;99.90
11925;DHT22;6022;48.768;18.608;2022-12-29T05:35:27;0.30;99.90
11925;DHT22;6022;48.768;18.608;2022-12-29T05:37:54;0.40;99.90
11925;DHT22;6022;48.768;18.608;2022-12-29T05:40:21;0.00;99.90
11925;DHT22;6022;48.768;18.608;2022-12-29T05:42:49;0.10;99.90
11925;DHT22;6022;48.768;18.608;2022-12-29T05:45:16;-0.20;99.90
11925;DHT22;6022;48.768;18.608;2022-12-29T05:47:46;0.00;99.90
11925;DHT22;6022;48.768;18.608;2022-12-29T05:50:13;0.00;99.90
11925;DHT22;6022;48.768;18.608;2022-12-29T05:52:40;0.00;99.90
11925;DHT22;6022;48.768;18.608;2022-12-29T05:55:08;0.20;99.90
11925;DHT22;6022;48.768;18.608;2022-12-29T05:57:35;0.10;99.90
11925;DHT22;6022;48.768;18.608;2022-12-29T06:00:04;0.00;99.90
11925;DHT22;6022;48.768;18.608;2022-12-29T06:02:33;0.30;99.90
11925;DHT22;6022;48.768;18.608;2022-12-29T06:05:00;0.10;99.90
11925;DHT22;6022;48.768;18.608;2022-12-29T06:07:27;0.40;99.90
11925;DHT22;6022;48.768;18.608;2022-12-29T06:09:55;0.00;99.90
11925;DHT22;6022;48.768;18.608;2022-12-29T06:12:22;0.40;99.90
11925;DHT22;6022;48.768;18.608;2022-12-29T06:14:49;0.10;99.90
11925;DHT22;6022;48.768;18.608;2022-12-29T06:17:17;0.20;99.90
11925;DHT22;6022;48.768;18.608;2022-12-29T06:19:44;0.40;99.90
11925;DHT22;6022;48.768;18.608;2022-12-29T06:22:11;0.00;99.90
11925;DHT22;6022;48.768;18.608;2022-12-29T06:24:39;0.20;99.90
11925;DHT22;6022;48.768;18.608;2022-12-29T06:27:06;0.10;99.90
11925;DHT22;6022;48.768;18.608;2022-12-29T06:29:33;0.10;99.90
11925;DHT22;6022;48.768;18.608;2022-12-29T06:32:01;0.20;99.90
11925;DHT22;6022;48.768;18.608;2022-12-29T06:34:29;0.10;99.90
11925;DHT22;6022;48.768;18.608;2022-12-29T06:36:56;0.30;99.90
11925;DHT22;6022;48.768;18.608;2022-12-29T06:39:23;0.40;99.90
11925;DHT22;6022;48.768;18.608;2022-12-29T06:41:54;0.40;99.90
11925;DHT22;6022;48.768;18.608;2022-12-29T06:44:21;0.50;99.90
11925;DHT22;6022;48.768;18.608;2022-12-29T06:46:49;0.50;99.90
11925;DHT22;6022;48.768;18.608;2022-12-29T06:49:17;0.60;99.90
11925;DHT22;6022;48.768;18.608;2022-12-29T06:51:44;0.70;99.90
11925;DHT22;6022;48.768;18.608;2022-12-29T06:54:12;0.40;99.90
11925;DHT22;6022;48.768;18.608;2022-12-29T06:56:39;0.60;99.90
11925;DHT22;6022;48.768;18.608;2022-12-29T06:59:07;0.60;99.90
11925;DHT22;6022;48.768;18.608;2022-12-29T07:01:35;0.60;99.90
11925;DHT22;6022;48.768;18.608;2022-12-29T07:04:03;1.00;99.90
11925;DHT22;6022;48.768;18.608;2022-12-29T07:06:30;0.80;99.90
11925;DHT22;6022;48.768;18.608;2022-12-29T07:08:58;1.10;99.90
11925;DHT22;6022;48.768;18.608;2022-12-29T07:11:25;1.20;99.90
11925;DHT22;6022;48.768;18.608;2022-12-29T07:13:52;1.20;99.90
11925;DHT22;6022;48.768;18.608;2022-12-29T07:16:19;1.20;99.90
11925;DHT22;6022;48.768;18.608;2022-12-29T07:18:47;1.30;99.90
11925;DHT22;6022;48.768;18.608;2022-12-29T07:21:14;1.50;99.90
11925;DHT22;6022;48.768;18.608;2022-12-29T07:23:43;1.50;99.90
11925;DHT22;6022;48.768;18.608;2022-12-29T07:26:13;1.70;99.90
11925;DHT22;6022;48.768;18.608;2022-12-29T07:28:42;1.70;99.90
11925;DHT22;6022;48.768;18.608;2022-12-29T07:31:27;2.10;99.90
11925;DHT22;6022;48.768;18.608;2022-12-29T07:33:54;1.90;99.90
11925;DHT22;6022;48.768;18.608;2022-12-29T07:36:22;2.10;99.90
11925;DHT22;6022;48.768;18.608;2022-12-29T07:38:52;2.10;99.90
11925;DHT22;6022;48.768;18.608;2022-12-29T07:41:19;2.00;99.90
11925;DHT22;6022;48.768;18.608;2022-12-29T07:43:47;2.10;99.90
11925;DHT22;6022;48.768;18.608;2022-12-29T07:46:15;1.90;99.90
11925;DHT22;6022;48.768;18.608;2022-12-29T07:49:02;2.20;99.90
11925;DHT22;6022;48.768;18.608;2022-12-29T07:51:29;2.40;99.90
11925;DHT22;6022;48.768;18.608;2022-12-29T07:53:59;2.20;99.90
11925;DHT22;6022;48.768;18.608;2022-12-29T07:56:27;2.40;99.90
11925;DHT22;6022;48.768;18.608;2022-12-29T07:58:54;2.20;99.90
11925;DHT22;6022;48.768;18.608;2022-12-29T08:01:22;2.50;99.90
11925;DHT22;6022;48.768;18.608;2022-12-29T08:03:52;2.50;99.90
11925;DHT22;6022;48.768;18.608;2022-12-29T08:06:23;2.70;99.90
11925;DHT22;6022;48.768;18.608;2022-12-29T08:08:50;2.50;99.90
11925;DHT22;6022;48.768;18.608;2022-12-29T08:11:18;2.90;99.90
11925;DHT22;6022;48.768;18.608;2022-12-29T08:13:47;2.60;99.90
11925;DHT22;6022;48.768;18.608;2022-12-29T08:16:14;2.90;99.90
11925;DHT22;6022;48.768;18.608;2022-12-29T08:18:41;2.60;99.90
11925;DHT22;6022;48.768;18.608;2022-12-29T08:21:09;2.90;99.90
11925;DHT22;6022;48.768;18.608;2022-12-29T08:23:36;3.00;99.90
11925;DHT22;6022;48.768;18.608;2022-12-29T08:26:05;3.20;99.90
11925;DHT22;6022;48.768;18.608;2022-12-29T08:28:35;3.30;99.90
11925;DHT22;6022;48.768;18.608;2022-12-29T08:31:03;3.20;99.90
11925;DHT22;6022;48.768;18.608;2022-12-29T08:33:30;3.30;99.90
11925;DHT22;6022;48.768;18.608;2022-12-29T08:36:03;3.50;99.90
11925;DHT22;6022;48.768;18.608;2022-12-29T08:38:32;3.60;99.90
11925;DHT22;6022;48.768;18.608;2022-12-29T08:40:59;3.40;99.90
11925;DHT22;6022;48.768;18.608;2022-12-29T08:43:28;3.60;99.90
11925;DHT22;6022;48.768;18.608;2022-12-29T08:45:56;4.00;99.90
11925;DHT22;6022;48.768;18.608;2022-12-29T08:48:25;4.00;99.90
11925;DHT22;6022;48.768;18.608;2022-12-29T08:50:56;4.30;99.90
11925;DHT22;6022;48.768;18.608;2022-12-29T08:53:23;4.10;99.90
11925;DHT22;6022;48.768;18.608;2022-12-29T08:55:58;4.60;99.90
11925;DHT22;6022;48.768;18.608;2022-12-29T08:58:31;4.60;99.90
11925;DHT22;6022;48.768;18.608;2022-12-29T09:00:59;4.50;99.90
11925;DHT22;6022;48.768;18.608;2022-12-29T09:03:26;4.90;99.90
11925;DHT22;6022;48.768;18.608;2022-12-29T09:06:15;5.10;99.90
11925;DHT22;6022;48.768;18.608;2022-12-29T09:11:31;5.00;99.90
11925;DHT22;6022;48.768;18.608;2022-12-29T09:13:58;5.40;99.90
11925;DHT22;6022;48.768;18.608;2022-12-29T09:16:25;5.70;99.90
11925;DHT22;6022;48.768;18.608;2022-12-29T09:18:53;5.50;99.90
11925;DHT22;6022;48.768;18.608;2022-12-29T09:21:21;6.10;99.90
11925;DHT22;6022;48.768;18.608;2022-12-29T09:23:48;5.90;99.90
11925;DHT22;6022;48.768;18.608;2022-12-29T09:26:15;6.30;99.90
11925;DHT22;6022;48.768;18.608;2022-12-29T09:28:42;6.10;99.90
11925;DHT22;6022;48.768;18.608;2022-12-29T09:31:11;6.50;99.90
11925;DHT22;6022;48.768;18.608;2022-12-29T09:33:38;6.50;99.90
11925;DHT22;6022;48.768;18.608;2022-12-29T09:36:06;6.80;99.90
11925;DHT22;6022;48.768;18.608;2022-12-29T09:38:35;7.60;99.90
11925;DHT22;6022;48.768;18.608;2022-12-29T09:41:19;7.70;99.90
11925;DHT22;6022;48.768;18.608;2022-12-29T09:46:58;8.30;99.90
11925;DHT22;6022;48.768;18.608;2022-12-29T09:52:20;8.30;99.90
11925;DHT22;6022;48.768;18.608;2022-12-29T10:00:40;8.50;99.90
11925;DHT22;6022;48.768;18.608;2022-12-29T10:03:21;8.60;99.90
11925;DHT22;6022;48.768;18.608;2022-12-29T10:08:34;8.60;99.90
11925;DHT22;6022;48.768;18.608;2022-12-29T10:17:22;8.70;99.90
11925;DHT22;6022;48.768;18.608;2022-12-29T10:25:44;8.60;99.90
11925;DHT22;6022;48.768;18.608;2022-12-29T10:28:24;8.70;99.90
11925;DHT22;6022;48.768;18.608;2022-12-29T10:31:18;8.90;99.90
11925;DHT22;6022;48.768;18.608;2022-12-29T10:34:03;8.90;99.90
11925;DHT22;6022;48.768;18.608;2022-12-29T10:40:02;8.80;99.90
11925;DHT22;6022;48.768;18.608;2022-12-29T10:42:46;8.80;99.90
11925;DHT22;6022;48.768;18.608;2022-12-29T10:45:22;8.70;99.90
11925;DHT22;6022;48.768;18.608;2022-12-29T10:48:04;9.10;99.90
11925;DHT22;6022;48.768;18.608;2022-12-29T10:50:48;8.90;99.90
11925;DHT22;6022;48.768;18.608;2022-12-29T10:53:42;9.10;99.90
11925;DHT22;6022;48.768;18.608;2022-12-29T10:59:30;9.30;99.90
11925;DHT22;6022;48.768;18.608;2022-12-29T11:08:36;9.50;99.90
11925;DHT22;6022;48.768;18.608;2022-12-29T11:11:35;9.80;99.90
11925;DHT22;6022;48.768;18.608;2022-12-29T11:16:42;9.90;99.90
11925;DHT22;6022;48.768;18.608;2022-12-29T11:19:21;9.90;99.90
11925;DHT22;6022;48.768;18.608;2022-12-29T11:21:51;9.90;99.90
11925;DHT22;6022;48.768;18.608;2022-12-29T11:24:25;9.60;99.90
11925;DHT22;6022;48.768;18.608;2022-12-29T11:27:17;9.40;99.90
11925;DHT22;6022;48.768;18.608;2022-12-29T11:29:51;9.40;99.90
11925;DHT22;6022;48.768;18.608;2022-12-29T11:32:23;9.10;99.90
11925;DHT22;6022;48.768;18.608;2022-12-29T11:34:57;9.00;99.90
11925;DHT22;6022;48.768;18.608;2022-12-29T11:37:36;9.00;99.90
11925;DHT22;6022;48.768;18.608;2022-12-29T11:40:19;9.10;99.90
11925;DHT22;6022;48.768;18.608;2022-12-29T11:42:51;9.10;99.90
11925;DHT22;6022;48.768;18.608;2022-12-29T11:45:25;9.20;99.90
11925;DHT22;6022;48.768;18.608;2022-12-29T11:47:59;9.40;99.90
11925;DHT22;6022;48.768;18.608;2022-12-29T11:50:42;9.50;99.90
11925;DHT22;6022;48.768;18.608;2022-12-29T11:53:21;9.40;99.90
11925;DHT22;6022;48.768;18.608;2022-12-29T11:55:58;9.40;99.90
11925;DHT22;6022;48.768;18.608;2022-12-29T11:58:35;9.80;99.90
11925;DHT22;6022;48.768;18.608;2022-12-29T12:01:23;9.50;99.90
11925;DHT22;6022;48.768;18.608;2022-12-29T12:04:10;9.60;99.90
11925;DHT22;6022;48.768;18.608;2022-12-29T12:07:10;9.80;99.90
11925;DHT22;6022;48.768;18.608;2022-12-29T12:12:50;10.00;99.90
11925;DHT22;6022;48.768;18.608;2022-12-29T12:15:29;10.10;99.90
11925;DHT22;6022;48.768;18.608;2022-12-29T12:19:01;10.30;99.90
11925;DHT22;6022;48.768;18.608;2022-12-29T12:21:43;10.30;99.90
11925;DHT22;6022;48.768;18.608;2022-12-29T12:27:08;10.20;99.90
11925;DHT22;6022;48.768;18.608;2022-12-29T12:30:03;10.30;99.90
11925;DHT22;6022;48.768;18.608;2022-12-29T12:32:59;10.70;99.90
11925;DHT22;6022;48.768;18.608;2022-12-29T12:38:54;10.80;99.90
11925;DHT22;6022;48.768;18.608;2022-12-29T12:44:51;10.50;99.90
11925;DHT22;6022;48.768;18.608;2022-12-29T12:56:26;9.80;99.90
11925;DHT22;6022;48.768;18.608;2022-12-29T13:02:28;9.60;99.90
11925;DHT22;6022;48.768;18.608;2022-12-29T13:14:31;9.10;99.90
11925;DHT22;6022;48.768;18.608;2022-12-29T13:17:20;9.20;99.90
11925;DHT22;6022;48.768;18.608;2022-12-29T13:35:20;8.70;99.90
11925;DHT22;6022;48.768;18.608;2022-12-29T13:41:16;8.80;99.90
11925;DHT22;6022;48.768;18.608;2022-12-29T13:43:51;8.80;99.90
11925;DHT22;6022;48.768;18.608;2022-12-29T13:46:26;8.70;99.90
11925;DHT22;6022;48.768;18.608;2022-12-29T13:49:20;8.80;99.90
11925;DHT22;6022;48.768;18.608;2022-12-29T13:52:12;8.60;99.90
11925;DHT22;6022;48.768;18.608;2022-12-29T13:55:24;8.60;99.90
11925;DHT22;6022;48.768;18.608;2022-12-29T14:03:54;8.70;99.90
11925;DHT22;6022;48.768;18.608;2022-12-29T14:06:27;8.60;99.90
11925;DHT22;6022;48.768;18.608;2022-12-29T14:09:06;8.50;99.90
11925;DHT22;6022;48.768;18.608;2022-12-29T14:12:00;8.40;99.90
11925;DHT22;6022;48.768;18.608;2022-12-29T14:14:30;8.40;99.90
11925;DHT22;6022;48.768;18.608;2022-12-29T14:17:11;8.20;99.90
11925;DHT22;6022;48.768;18.608;2022-12-29T14:20:01;8.20;99.90
11925;DHT22;6022;48.768;18.608;2022-12-29T14:22:34;8.20;99.90
11925;DHT22;6022;48.768;18.608;2022-12-29T14:25:59;8.00;99.90
11925;DHT22;6022;48.768;18.608;2022-12-29T14:28:41;8.10;99.90
11925;DHT22;6022;48.768;18.608;2022-12-29T14:37:03;7.80;99.90
11925;DHT22;6022;48.768;18.608;2022-12-29T14:39:44;7.30;99.90
11925;DHT22;6022;48.768;18.608;2022-12-29T14:42:20;7.80;99.90
11925;DHT22;6022;48.768;18.608;2022-12-29T14:45:00;7.70;99.90
11925;DHT22;6022;48.768;18.608;2022-12-29T14:47:51;7.40;99.90
11925;DHT22;6022;48.768;18.608;2022-12-29T14:50:43;7.30;99.90
11925;DHT22;6022;48.768;18.608;2022-12-29T14:56:52;7.00;99.90
11925;DHT22;6022;48.768;18.608;2022-12-29T14:59:26;6.80;99.90
11925;DHT22;6022;48.768;18.608;2022-12-29T15:01:58;6.70;99.90
11925;DHT22;6022;48.768;18.608;2022-12-29T15:04:37;6.70;99.90
11925;DHT22;6022;48.768;18.608;2022-12-29T15:07:12;6.70;99.90
11925;DHT22;6022;48.768;18.608;2022-12-29T15:09:51;6.50;99.90
11925;DHT22;6022;48.768;18.608;2022-12-29T15:12:37;6.50;99.90
11925;DHT22;6022;48.768;18.608;2022-12-29T15:15:27;6.40;99.90
11925;DHT22;6022;48.768;18.608;2022-12-29T15:18:14;6.30;99.90
11925;DHT22;6022;48.768;18.608;2022-12-29T15:21:05;6.30;99.90
11925;DHT22;6022;48.768;18.608;2022-12-29T15:23:56;6.40;99.90
11925;DHT22;6022;48.768;18.608;2022-12-29T15:26:39;6.40;99.90
11925;DHT22;6022;48.768;18.608;2022-12-29T15:29:31;6.10;99.90
11925;DHT22;6022;48.768;18.608;2022-12-29T15:34:45;5.70;99.90
11925;DHT22;6022;48.768;18.608;2022-12-29T15:37:31;5.90;99.90
11925;DHT22;6022;48.768;18.608;2022-12-29T15:40:00;5.70;99.90
11925;DHT22;6022;48.768;18.608;2022-12-29T15:42:56;5.70;99.90
11925;DHT22;6022;48.768;18.608;2022-12-29T15:45:33;5.70;99.90
11925;DHT22;6022;48.768;18.608;2022-12-29T15:48:04;5.70;99.90
11925;DHT22;6022;48.768;18.608;2022-12-29T15:50:41;5.60;99.90
11925;DHT22;6022;48.768;18.608;2022-12-29T15:53:12;5.60;99.90
11925;DHT22;6022;48.768;18.608;2022-12-29T15:55:47;5.50;99.90
11925;DHT22;6022;48.768;18.608;2022-12-29T15:58:27;5.60;99.90
11925;DHT22;6022;48.768;18.608;2022-12-29T16:01:01;5.20;99.90
11925;DHT22;6022;48.768;18.608;2022-12-29T16:03:32;5.10;99.90
11925;DHT22;6022;48.768;18.608;2022-12-29T16:06:10;5.00;99.90
11925;DHT22;6022;48.768;18.608;2022-12-29T16:11:47;4.80;99.90
11925;DHT22;6022;48.768;18.608;2022-12-29T16:14:27;4.70;99.90
11925;DHT22;6022;48.768;18.608;2022-12-29T16:17:03;4.70;99.90
11925;DHT22;6022;48.768;18.608;2022-12-29T16:19:37;4.60;99.90
11925;DHT22;6022;48.768;18.608;2022-12-29T16:22:19;4.60;99.90
11925;DHT22;6022;48.768;18.608;2022-12-29T16:24:57;4.40;99.90
11925;DHT22;6022;48.768;18.608;2022-12-29T16:27:40;4.40;99.90
11925;DHT22;6022;48.768;18.608;2022-12-29T16:33:04;4.30;99.90
11925;DHT22;6022;48.768;18.608;2022-12-29T16:35:49;4.50;99.90
11925;DHT22;6022;48.768;18.608;2022-12-29T16:38:21;4.80;99.90
11925;DHT22;6022;48.768;18.608;2022-12-29T16:40:59;4.50;99.90
11925;DHT22;6022;48.768;18.608;2022-12-29T16:43:31;4.40;99.90
11925;DHT22;6022;48.768;18.608;2022-12-29T16:48:35;4.10;99.90
11925;DHT22;6022;48.768;18.608;2022-12-29T16:51:15;4.10;99.90
11925;DHT22;6022;48.768;18.608;2022-12-29T16:53:52;4.30;99.90
11925;DHT22;6022;48.768;18.608;2022-12-29T16:56:26;4.30;99.90
11925;DHT22;6022;48.768;18.608;2022-12-29T16:59:16;3.90;99.90
11925;DHT22;6022;48.768;18.608;2022-12-29T17:02:00;4.10;99.90
11925;DHT22;6022;48.768;18.608;2022-12-29T17:04:33;4.30;99.90
11925;DHT22;6022;48.768;18.608;2022-12-29T17:07:01;3.70;99.90
11925;DHT22;6022;48.768;18.608;2022-12-29T17:09:28;3.50;99.90
11925;DHT22;6022;48.768;18.608;2022-12-29T17:11:59;3.70;99.90
11925;DHT22;6022;48.768;18.608;2022-12-29T17:14:41;3.70;99.90
11925;DHT22;6022;48.768;18.608;2022-12-29T17:17:35;4.10;99.90
11925;DHT22;6022;48.768;18.608;2022-12-29T17:20:15;4.10;99.90
11925;DHT22;6022;48.768;18.608;2022-12-29T17:22:48;3.70;99.90
11925;DHT22;6022;48.768;18.608;2022-12-29T17:25:20;3.80;99.90
11925;DHT22;6022;48.768;18.608;2022-12-29T17:28:20;3.80;99.90
11925;DHT22;6022;48.768;18.608;2022-12-29T17:30:52;4.10;99.90
11925;DHT22;6022;48.768;18.608;2022-12-29T17:33:22;4.00;99.90
11925;DHT22;6022;48.768;18.608;2022-12-29T17:35:55;3.90;99.90
11925;DHT22;6022;48.768;18.608;2022-12-29T17:38:27;4.00;99.90
11925;DHT22;6022;48.768;18.608;2022-12-29T17:41:04;4.10;99.90
11925;DHT22;6022;48.768;18.608;2022-12-29T17:43:41;4.00;99.90
11925;DHT22;6022;48.768;18.608;2022-12-29T17:46:08;4.20;99.90
11925;DHT22;6022;48.768;18.608;2022-12-29T17:48:35;4.30;99.90
11925;DHT22;6022;48.768;18.608;2022-12-29T17:51:03;4.40;99.90
11925;DHT22;6022;48.768;18.608;2022-12-29T17:53:30;4.50;99.90
11925;DHT22;6022;48.768;18.608;2022-12-29T17:55:57;4.50;99.90
11925;DHT22;6022;48.768;18.608;2022-12-29T17:58:27;4.50;99.90
11925;DHT22;6022;48.768;18.608;2022-12-29T18:00:58;4.60;99.90
11925;DHT22;6022;48.768;18.608;2022-12-29T18:03:37;4.50;99.90
11925;DHT22;6022;48.768;18.608;2022-12-29T18:06:10;4.60;99.90
11925;DHT22;6022;48.768;18.608;2022-12-29T18:08:40;4.50;99.90
11925;DHT22;6022;48.768;18.608;2022-12-29T18:11:25;4.50;99.90
11925;DHT22;6022;48.768;18.608;2022-12-29T18:13:53;4.50;99.90
11925;DHT22;6022;48.768;18.608;2022-12-29T18:16:21;4.60;99.90
11925;DHT22;6022;48.768;18.608;2022-12-29T18:18:49;4.50;99.90
11925;DHT22;6022;48.768;18.608;2022-12-29T18:21:22;4.60;99.90
11925;DHT22;6022;48.768;18.608;2022-12-29T18:23:50;4.40;99.90
11925;DHT22;6022;48.768;18.608;2022-12-29T18:26:23;4.60;99.90
11925;DHT22;6022;48.768;18.608;2022-12-29T18:28:55;4.60;99.90
11925;DHT22;6022;48.768;18.608;2022-12-29T18:31:29;4.50;99.90
11925;DHT22;6022;48.768;18.608;2022-12-29T18:34:05;4.50;99.90
11925;DHT22;6022;48.768;18.608;2022-12-29T18:36:38;4.40;99.90
11925;DHT22;6022;48.768;18.608;2022-12-29T18:39:06;4.30;99.90
11925;DHT22;6022;48.768;18.608;2022-12-29T18:41:38;4.20;99.90
11925;DHT22;6022;48.768;18.608;2022-12-29T18:44:11;4.30;99.90
11925;DHT22;6022;48.768;18.608;2022-12-29T18:46:39;3.80;99.90
11925;DHT22;6022;48.768;18.608;2022-12-29T18:49:06;4.00;99.90
11925;DHT22;6022;48.768;18.608;2022-12-29T18:51:34;3.90;99.90
11925;DHT22;6022;48.768;18.608;2022-12-29T18:54:01;3.80;99.90
11925;DHT22;6022;48.768;18.608;2022-12-29T18:56:29;4.20;99.90
11925;DHT22;6022;48.768;18.608;2022-12-29T18:58:56;3.90;99.90
11925;DHT22;6022;48.768;18.608;2022-12-29T19:01:25;3.90;99.90
11925;DHT22;6022;48.768;18.608;2022-12-29T19:03:54;3.90;99.90
11925;DHT22;6022;48.768;18.608;2022-12-29T19:06:21;3.50;99.90
11925;DHT22;6022;48.768;18.608;2022-12-29T19:08:48;3.70;99.90
11925;DHT22;6022;48.768;18.608;2022-12-29T19:11:16;3.60;99.90